• Join FlightAware (Why Join?)
  • Login
  • US Flag 
11:49PM EDT


 

Airport Tracker/Info


-or-


 

Live Flight TrackerFlight Track Log ✈ AFL150 ✈ 04-Mar-2014 ✈ UUEE / SVO - MUHA / HAV

Flight Track Log - Related Links

Times and Time Zones

All times are in EST time to prevent confusion due to time zone crossing. See the AFL150 flight status page for this flight to view local times or setup timezone preferences in your user account.

Time Position Orientation Groundspeed Altitude Reporting Facility
EST Latitude Longitude Course Direction KTS MPH feet Rate Location/Type
04:46PM 24.1475 -82.2911 250° West  Level FlightAware Approximate
04:47PM 24.0534 -82.3333 180° South  Level FlightAware Approximate
04:48PM 23.9325 -82.3373 183° South  Level FlightAware Approximate
04:49PM 23.8116 -82.3444 183° South  Level FlightAware Approximate
04:50PM 23.6908 -82.3512 182° South  Level FlightAware Approximate
04:51PM 23.5699 -82.3567 182° South  Level FlightAware Approximate
04:52PM 23.4489 -82.3622 182° South  Level FlightAware Approximate
04:53PM 23.3280 -82.3677 182° South  Level FlightAware Approximate
04:54PM 23.2071 -82.3732 182° South  Level FlightAware Approximate
04:55PM 23.0862 -82.3787 182° South  Level FlightAware Approximate
04:56PM 22.9891 -82.4091 223° Southwest  Level Estimated
04:57PM 22.9891 -82.4091 223° Southwest  Level Estimated
04:58PM 22.9891 -82.4091 223° Southwest  Level Estimated
04:59PM 22.9891 -82.4091 223° Southwest  Level Estimated
05:00PM 22.9891 -82.4091 223° Southwest  Level Estimated
05:01PM 22.9891 -82.4091 223° Southwest  Level Estimated
05:02PM 22.9891 -82.4091 223° Southwest  Level Estimated
05:03PM 22.9891 -82.4091 223° Southwest  Level Estimated
05:04PM 22.9891 -82.4091 223° Southwest  Level Estimated
05:05PM 22.9891 -82.4091 223° Southwest  Level Estimated
05:06PM 22.9891 -82.4091 223° Southwest  Level Estimated
05:07PM 22.9891 -82.4091 223° Southwest  Level Estimated
05:08PM 22.9891 -82.4091 223° Southwest  Level Estimated
05:09PM 22.9891 -82.4091 223° Southwest  Level Estimated
05:10PM 22.9891 -82.4091 223° Southwest  Level Estimated